Time;durP1;ratioP1;P1;durP2;ratioP2;P2;SDS_P1;SDS_P2;PMS_P1;PMS_P2;Temp;Humidity;BMP_temperature;BMP_pressure;BME280_temperature;BME280_humidity;BME280_pressure;Samples;Min_cycle;Max_cycle;Signal;HPM_P1;HPM_P2
2021/08/03 00:02:06;;;;;;;38.63;31.27;;;24.50;95.60;;;;;;5020341;28;20120;-83
2021/08/03 00:04:41;;;;;;;38.75;31.65;;;24.50;95.60;;;;;;5060300;28;20029;-84
2021/08/03 00:07:09;;;;;;;;;;;24.40;95.70;;;;;;5034680;28;20056;-84
2021/08/03 00:09:35;;;;;;;42.17;32.40;;;24.40;95.90;;;;;;5054202;28;20355;-83
2021/08/03 00:12:01;;;;;;;37.47;31.65;;;24.40;95.70;;;;;;5039838;28;20025;-83
2021/08/03 00:14:28;;;;;;;39.08;31.02;;;24.40;95.70;;;;;;5035953;28;20094;-84
2021/08/03 00:16:56;;;;;;;38.97;33.42;;;24.40;95.70;;;;;;5020222;28;20053;-83
2021/08/03 00:19:26;;;;;;;37.55;31.42;;;24.50;95.70;;;;;;5054207;28;20028;-83
2021/08/03 00:21:53;;;;;;;41.17;32.85;;;24.40;95.70;;;;;;5054039;28;20032;-83
2021/08/03 00:24:24;;;;;;;43.05;33.50;;;24.50;95.70;;;;;;5056227;28;20112;-83
2021/08/03 00:26:51;;;;;;;39.90;32.85;;;24.50;95.70;;;;;;5035894;28;20033;-83
2021/08/03 00:29:17;;;;;;;41.05;33.67;;;24.40;95.70;;;;;;5035419;28;20053;-83
2021/08/03 00:31:43;;;;;;;39.80;33.10;;;24.40;95.70;;;;;;5053621;28;20040;-83
2021/08/03 00:34:09;;;;;;;40.95;33.58;;;24.50;95.80;;;;;;5053728;28;20108;-83
2021/08/03 00:36:35;;;;;;;40.20;33.85;;;24.50;95.80;;;;;;5036015;28;20035;-83
2021/08/03 00:39:00;;;;;;;40.25;34.72;;;24.40;95.80;;;;;;5058347;28;20073;-83
2021/08/03 00:41:35;;;;;;;41.70;34.33;;;24.40;95.70;;;;;;5035704;28;20036;-84
2021/08/03 00:44:00;;;;;;;41.63;34.50;;;24.40;95.70;;;;;;5035963;28;20108;-83
2021/08/03 00:46:26;;;;;;;42.00;34.33;;;24.40;95.80;;;;;;5053649;28;20116;-83
2021/08/03 00:48:52;;;;;;;38.95;33.15;;;24.40;95.80;;;;;;5019017;28;20459;-83
2021/08/03 00:51:20;;;;;;;41.78;34.65;;;24.40;95.80;;;;;;5040927;28;20029;-83
2021/08/03 00:53:46;;;;;;;41.80;34.92;;;24.40;95.80;;;;;;5053459;28;20462;-83
2021/08/03 00:56:13;;;;;;;42.17;34.95;;;24.40;95.80;;;;;;5035398;28;20036;-83
2021/08/03 00:58:39;;;;;;;41.42;34.40;;;24.40;95.80;;;;;;5035202;28;20037;-84
2021/08/03 01:01:05;;;;;;;42.85;35.28;;;24.40;95.80;;;;;;5053574;28;20421;-84
2021/08/03 01:03:31;;;;;;;43.30;36.00;;;24.40;95.80;;;;;;5035431;28;20029;-84
2021/08/03 01:06:17;;;;;;;43.70;36.00;;;24.40;95.80;;;;;;5019053;28;20095;-84
2021/08/03 01:08:49;;;;;;;42.83;35.28;;;24.40;95.90;;;;;;5034696;28;20074;-84
2021/08/03 01:11:20;;;;;;;43.80;37.10;;;24.40;95.90;;;;;;5053604;28;20104;-84
2021/08/03 01:14:16;;;;;;;44.85;37.65;;;24.40;95.90;;;;;;5052911;28;20025;-84
2021/08/03 01:16:48;;;;;;;44.80;36.60;;;24.40;95.90;;;;;;5035008;28;20045;-84
2021/08/03 01:19:51;;;;;;;43.58;36.88;;;24.40;95.90;;;;;;5034970;28;20024;-84
2021/08/03 01:22:53;;;;;;;45.25;35.55;;;24.40;95.90;;;;;;5053169;28;20121;-84
2021/08/03 01:25:52;;;;;;;47.58;37.05;;;24.40;95.90;;;;;;5035244;28;20036;-83
2021/08/03 01:28:28;;;;;;;44.97;37.33;;;24.40;95.90;;;;;;5034974;28;20029;-82
2021/08/03 01:31:19;;;;;;;43.65;35.80;;;24.40;95.90;;;;;;5052451;28;20029;-82
2021/08/03 01:33:49;;;;;;;43.10;36.15;;;24.40;95.90;;;;;;5038804;28;20045;-84
2021/08/03 01:36:16;;;;;;;42.20;35.88;;;24.40;96.00;;;;;;5034689;28;20467;-84
2021/08/03 01:38:43;;;;;;;45.08;36.72;;;24.40;96.00;;;;;;5042014;28;20032;-84
2021/08/03 01:41:16;;;;;;;45.80;37.65;;;24.40;95.90;;;;;;5040290;28;20494;-85
2021/08/03 01:43:44;;;;;;;43.80;37.10;;;24.40;96.00;;;;;;5034688;28;20021;-84
2021/08/03 01:46:11;;;;;;;42.28;36.63;;;24.40;96.00;;;;;;5052386;28;20024;-84
2021/08/03 01:48:37;;;;;;;48.17;37.00;;;24.40;96.00;;;;;;5052516;28;20097;-85
2021/08/03 01:51:03;;;;;;;44.67;36.70;;;24.40;96.00;;;;;;5018483;28;20478;-84
2021/08/03 01:53:29;;;;;;;41.97;35.45;;;24.40;96.00;;;;;;5035231;28;20036;-84
2021/08/03 01:55:58;;;;;;;44.45;36.85;;;24.40;96.00;;;;;;5017848;28;20041;-84
2021/08/03 01:58:25;;;;;;;46.10;37.28;;;24.40;96.00;;;;;;5034689;28;20029;-84
2021/08/03 02:00:54;;;;;;;42.17;35.17;;;24.40;96.00;;;;;;5034365;28;20029;-84
2021/08/03 02:03:22;;;;;;;44.38;36.53;;;24.40;96.00;;;;;;5056938;28;20056;-84
2021/08/03 02:05:52;;;;;;;44.67;36.45;;;24.40;96.00;;;;;;5034134;28;20040;-84
2021/08/03 02:08:21;;;;;;;42.30;35.80;;;24.40;96.00;;;;;;5052766;28;20159;-84
2021/08/03 02:10:47;;;;;;;43.92;36.42;;;24.40;96.00;;;;;;5056661;28;20024;-84
2021/08/03 02:13:14;;;;;;;42.28;34.33;;;24.40;96.00;;;;;;5034346;28;20033;-84
2021/08/03 02:15:40;;;;;;;44.22;36.50;;;24.40;96.00;;;;;;5034433;28;20132;-84
2021/08/03 02:18:06;;;;;;;42.45;36.25;;;24.40;96.10;;;;;;5018099;28;20029;-84
2021/08/03 02:20:32;;;;;;;43.10;35.88;;;24.30;96.00;;;;;;5033921;28;20467;-84
2021/08/03 02:22:58;;;;;;;44.80;36.83;;;24.40;96.10;;;;;;5017380;28;20103;-84
2021/08/03 02:25:25;;;;;;;43.47;36.15;;;24.40;96.10;;;;;;5034262;28;20028;-83
2021/08/03 02:27:53;;;;;;;41.42;35.78;;;24.40;96.10;;;;;;5034257;28;20029;-83
2021/08/03 02:30:19;;;;;;;46.00;36.30;;;24.40;96.10;;;;;;5017978;28;20312;-83
2021/08/03 02:32:52;;;;;;;41.75;35.30;;;24.40;96.10;;;;;;5052485;28;20025;-83
2021/08/03 02:35:23;;;;;;;41.53;35.60;;;24.40;96.10;;;;;;5052173;28;20467;-83
2021/08/03 02:37:58;;;;;;;45.13;36.90;;;24.40;96.10;;;;;;5033713;28;20025;-83
2021/08/03 02:40:24;;;;;;;42.80;35.50;;;24.30;96.10;;;;;;5034015;28;20116;-83
2021/08/03 02:42:52;;;;;;;41.65;35.53;;;24.40;96.10;;;;;;5051654;28;20025;-83
2021/08/03 02:45:18;;;;;;;46.00;37.00;;;24.30;96.10;;;;;;5051809;28;20035;-83
2021/08/03 02:47:51;;;;;;;43.35;35.22;;;24.30;96.10;;;;;;5017580;28;20039;-83
2021/08/03 02:50:20;;;;;;;41.33;35.00;;;24.30;96.10;;;;;;5056783;28;20021;-84
2021/08/03 02:52:49;;;;;;;41.00;34.38;;;24.30;96.10;;;;;;5055021;28;20040;-84
2021/08/03 02:55:21;;;;;;;40.95;33.33;;;24.30;96.10;;;;;;5037636;28;20032;-83
2021/08/03 02:57:52;;;;;;;41.05;34.67;;;24.30;96.10;;;;;;5055788;28;20537;-83
2021/08/03 03:00:18;;;;;;;38.97;33.72;;;24.30;96.10;;;;;;5055856;28;20055;-83
2021/08/03 03:02:45;;;;;;;42.63;34.92;;;24.30;96.10;;;;;;5037036;28;20025;-83
2021/08/03 03:05:19;;;;;;;40.53;34.17;;;24.30;96.10;;;;;;5021005;28;20497;-83
2021/08/03 03:07:54;;;;;;;42.40;34.95;;;24.40;96.20;;;;;;5055281;28;20032;-84
2021/08/03 03:10:25;;;;;;;41.45;34.47;;;24.40;96.20;;;;;;5055900;28;20025;-83
2021/08/03 03:12:57;;;;;;;39.83;33.25;;;24.30;96.20;;;;;;5037312;28;20021;-83
2021/08/03 03:15:24;;;;;;;41.65;35.20;;;24.40;96.20;;;;;;5055225;28;20113;-83
2021/08/03 03:17:51;;;;;;;42.92;34.20;;;24.30;96.20;;;;;;5054870;28;20037;-84
2021/08/03 03:20:18;;;;;;;41.63;34.90;;;24.40;96.20;;;;;;5020880;28;20170;-83
2021/08/03 03:22:45;;;;;;;42.83;34.47;;;24.40;96.20;;;;;;5037573;28;20040;-83
2021/08/03 03:25:17;;;;;;;36.75;31.85;;;24.40;96.20;;;;;;5057252;28;20113;-83
2021/08/03 03:27:44;;;;;;;37.40;32.05;;;24.30;96.20;;;;;;5055431;28;20510;-82
2021/08/03 03:30:14;;;;;;;37.53;32.25;;;24.30;96.20;;;;;;5054755;28;20072;-84
2021/08/03 03:32:40;;;;;;;36.30;31.35;;;24.40;96.20;;;;;;5026960;28;20033;-83
2021/08/03 03:35:08;;;;;;;37.80;31.42;;;24.40;96.20;;;;;;5061119;28;20371;-83
2021/08/03 03:37:35;;;;;;;38.60;32.22;;;24.30;96.20;;;;;;5038658;28;20033;-82
2021/08/03 03:40:00;;;;;;;37.38;32.47;;;24.40;96.20;;;;;;5036729;28;20035;-82
2021/08/03 03:42:30;;;;;;;38.70;31.95;;;24.30;96.20;;;;;;5020401;28;20044;-82
2021/08/03 03:44:56;;;;;;;37.83;31.45;;;24.30;96.20;;;;;;5036394;28;20029;-82
2021/08/03 03:47:35;;;;;;;37.08;31.17;;;24.30;96.20;;;;;;5043446;28;20029;-82
2021/08/03 03:50:16;;;;;;;37.90;31.67;;;24.30;96.20;;;;;;5036780;28;20033;-83
2021/08/03 03:53:01;;;;;;;36.65;30.33;;;24.30;96.20;;;;;;5054995;28;20025;-83
2021/08/03 03:55:28;;;;;;;38.00;32.42;;;24.30;96.20;;;;;;5054781;28;20044;-83
2021/08/03 03:57:54;;;;;;;39.17;31.92;;;24.30;96.20;;;;;;5054426;28;20041;-83
2021/08/03 04:00:20;;;;;;;34.00;29.52;;;24.30;96.20;;;;;;5024339;28;20078;-83
2021/08/03 04:02:48;;;;;;;37.70;31.58;;;24.30;96.20;;;;;;5036840;28;20033;-83
2021/08/03 04:05:15;;;;;;;34.63;29.88;;;24.30;96.20;;;;;;5036174;28;20029;-84
2021/08/03 04:07:49;;;;;;;35.38;29.98;;;24.30;96.20;;;;;;5038346;28;20029;-84
2021/08/03 04:10:17;;;;;;;35.58;29.65;;;24.30;96.20;;;;;;5027745;28;20029;-84
2021/08/03 04:12:43;;;;;;;35.22;29.58;;;24.30;96.20;;;;;;5054368;28;20041;-84
2021/08/03 04:15:10;;;;;;;35.83;29.95;;;24.30;96.20;;;;;;5036231;28;20125;-83
2021/08/03 04:17:36;;;;;;;30.58;27.27;;;24.30;96.20;;;;;;5036701;28;20037;-83
2021/08/03 04:20:02;;;;;;;32.97;28.67;;;24.30;96.30;;;;;;5054048;28;20086;-83
2021/08/03 04:22:28;;;;;;;33.13;27.60;;;24.30;96.30;;;;;;5056759;28;20524;-84
2021/08/03 04:24:54;;;;;;;34.13;28.63;;;24.30;96.30;;;;;;5064097;28;20029;-84
2021/08/03 04:27:20;;;;;;;32.50;28.17;;;24.30;96.30;;;;;;5036271;28;20032;-83
2021/08/03 04:29:45;;;;;;;31.75;27.40;;;24.30;96.30;;;;;;5063935;28;20031;-83
2021/08/03 04:32:11;;;;;;;31.92;27.85;;;24.30;96.30;;;;;;5035924;28;20037;-84
2021/08/03 04:34:37;;;;;;;31.00;26.98;;;24.30;96.30;;;;;;5036154;28;20482;-83
2021/08/03 04:37:03;;;;;;;33.95;28.63;;;24.30;96.30;;;;;;5035835;28;20037;-83
2021/08/03 04:39:28;;;;;;;32.47;27.20;;;24.30;96.30;;;;;;5053972;28;20043;-84
2021/08/03 04:41:55;;;;;;;30.52;26.67;;;24.30;96.30;;;;;;5053697;28;20423;-85
2021/08/03 04:44:21;;;;;;;32.60;26.85;;;24.30;96.30;;;;;;5035864;28;20032;-83
2021/08/03 04:46:47;;;;;;;31.58;27.17;;;24.30;96.30;;;;;;5040837;28;20025;-83
2021/08/03 04:49:12;;;;;;;29.65;24.90;;;24.30;96.30;;;;;;5019049;28;20028;-83
2021/08/03 04:51:39;;;;;;;29.20;25.88;;;24.30;96.30;;;;;;5036149;28;20461;-84
2021/08/03 04:54:05;;;;;;;28.00;24.63;;;24.30;96.30;;;;;;5035606;28;20446;-83
2021/08/03 04:56:31;;;;;;;29.95;25.33;;;24.30;96.30;;;;;;5053630;28;20116;-83
2021/08/03 04:58:56;;;;;;;31.70;26.10;;;24.30;96.30;;;;;;5039893;28;20495;-85
2021/08/03 05:01:25;;;;;;;30.48;25.15;;;24.30;96.30;;;;;;5019079;28;20025;-83
2021/08/03 05:03:50;;;;;;;29.45;24.92;;;24.30;96.30;;;;;;5053035;28;20085;-83
2021/08/03 05:06:17;;;;;;;28.70;25.25;;;24.30;96.60;;;;;;5035868;28;20179;-83
2021/08/03 05:08:42;;;;;;;28.45;24.33;;;24.30;96.30;;;;;;5057754;28;20029;-84
2021/08/03 05:11:08;;;;;;;26.63;23.45;;;24.30;96.30;;;;;;5052999;28;20032;-83
2021/08/03 05:13:34;;;;;;;28.65;24.08;;;24.20;96.30;;;;;;5034736;28;20074;-83
2021/08/03 05:16:00;;;;;;;27.95;24.55;;;24.30;96.40;;;;;;5034772;28;20068;-84
2021/08/03 05:18:27;;;;;;;28.65;24.27;;;24.30;96.30;;;;;;5053140;28;20029;-83
2021/08/03 05:20:53;;;;;;;28.95;24.30;;;24.30;96.30;;;;;;5051540;28;20040;-83
2021/08/03 05:23:19;;;;;;;28.80;24.52;;;24.30;96.40;;;;;;5054857;28;20532;-83
2021/08/03 05:25:45;;;;;;;26.17;23.23;;;24.30;96.30;;;;;;5038809;28;20056;-83
2021/08/03 05:28:11;;;;;;;29.02;24.23;;;24.30;96.30;;;;;;5072367;28;20479;-84
2021/08/03 05:30:37;;;;;;;28.88;24.58;;;24.30;96.30;;;;;;5054948;28;20056;-83
2021/08/03 05:33:03;;;;;;;25.42;22.63;;;24.30;96.30;;;;;;5038184;28;20056;-83
2021/08/03 05:35:28;;;;;;;28.60;22.92;;;24.30;96.40;;;;;;5060036;28;20386;-83
2021/08/03 05:37:54;;;;;;;27.10;23.05;;;24.30;96.30;;;;;;5038238;28;20090;-83
2021/08/03 05:40:20;;;;;;;27.23;23.30;;;24.30;96.30;;;;;;5038166;28;20135;-84
2021/08/03 05:42:46;;;;;;;27.88;23.52;;;24.30;96.30;;;;;;5073014;28;20072;-83
2021/08/03 05:45:12;;;;;;;27.35;23.15;;;24.30;96.30;;;;;;5074087;28;20410;-84
2021/08/03 05:47:39;;;;;;;27.25;22.60;;;24.30;96.30;;;;;;5054310;28;20040;-83
2021/08/03 05:50:12;;;;;;;27.98;22.75;;;24.30;96.30;;;;;;5054680;28;20475;-83
2021/08/03 05:52:40;;;;;;;23.13;20.63;;;24.30;96.30;;;;;;5054740;28;20420;-83
2021/08/03 05:55:07;;;;;;;24.50;20.95;;;24.30;96.30;;;;;;5072034;28;20441;-83
2021/08/03 05:57:33;;;;;;;23.10;19.95;;;24.30;96.30;;;;;;5038347;28;20074;-83
2021/08/03 06:00:01;;;;;;;21.70;17.98;;;24.30;96.20;;;;;;5073146;28;20036;-83
2021/08/03 06:02:26;;;;;;;18.42;16.27;;;24.30;96.30;;;;;;5021564;28;20089;-83
2021/08/03 06:04:54;;;;;;;18.27;15.40;;;24.30;96.20;;;;;;5076808;28;20420;-82
2021/08/03 06:07:28;;;;;;;18.00;13.80;;;24.40;96.20;;;;;;5072055;28;20039;-82
2021/08/03 06:09:57;;;;;;;14.40;11.82;;;24.40;96.00;;;;;;5068941;28;20508;-82
2021/08/03 06:13:01;;;;;;;12.85;10.30;;;24.40;95.80;;;;;;5055025;28;20036;-82
2021/08/03 06:15:33;;;;;;;11.80;8.27;;;24.40;95.60;;;;;;5053873;28;20101;-82
2021/08/03 06:18:06;;;;;;;11.30;8.13;;;24.40;95.30;;;;;;5058092;28;20028;-83
2021/08/03 06:20:33;;;;;;;7.68;6.78;;;24.40;95.20;;;;;;5054704;28;20048;-82
2021/08/03 06:23:00;;;;;;;7.70;5.82;;;24.40;95.10;;;;;;5072129;28;20028;-83
2021/08/03 06:25:26;;;;;;;7.75;4.88;;;24.40;94.90;;;;;;5055734;28;20033;-83
2021/08/03 06:27:53;;;;;;;5.22;4.13;;;24.40;94.80;;;;;;5062802;28;20068;-84
2021/08/03 06:30:20;;;;;;;5.78;4.38;;;24.40;94.70;;;;;;5057611;28;20056;-83
2021/08/03 06:32:48;;;;;;;5.60;3.78;;;24.40;94.50;;;;;;5041998;28;20041;-83
2021/08/03 06:35:15;;;;;;;3.72;3.10;;;24.40;94.50;;;;;;5042016;28;20537;-83
2021/08/03 06:37:40;;;;;;;3.90;3.15;;;24.40;94.40;;;;;;5058678;28;20040;-83
2021/08/03 06:40:07;;;;;;;3.30;2.55;;;24.40;94.30;;;;;;5076467;28;20484;-83
2021/08/03 06:42:36;;;;;;;3.53;2.55;;;24.40;94.20;;;;;;5076192;28;20162;-82
2021/08/03 06:45:10;;;;;;;3.85;2.47;;;24.40;94.20;;;;;;5079399;28;20032;-82
2021/08/03 06:47:49;;;;;;;2.97;2.55;;;24.40;94.10;;;;;;5075575;28;20028;-82
2021/08/03 06:50:17;;;;;;;2.30;2.08;;;24.40;94.10;;;;;;5057878;28;20024;-83
2021/08/03 06:52:44;;;;;;;4.97;2.20;;;24.30;94.10;;;;;;5058051;28;20478;-83
2021/08/03 06:55:12;;;;;;;3.58;2.10;;;24.30;94.10;;;;;;5060207;28;20037;-87
2021/08/03 06:57:48;;;;;;;2.70;2.03;;;24.30;94.10;;;;;;5065251;28;20032;-82
2021/08/03 07:00:15;;;;;;;2.65;1.77;;;24.30;94.20;;;;;;5057396;28;20047;-83
2021/08/03 07:02:44;;;;;;;2.42;1.70;;;24.20;94.00;;;;;;5024143;28;20098;-83
2021/08/03 07:05:18;;;;;;;3.00;1.92;;;24.20;93.90;;;;;;5057337;28;20135;-82
2021/08/03 07:07:45;;;;;;;2.90;1.65;;;24.20;93.90;;;;;;5076172;28;20159;-82
2021/08/03 07:10:12;;;;;;;1.95;1.75;;;24.20;93.80;;;;;;5041430;28;20056;-82
2021/08/03 07:12:44;;;;;;;1.90;1.30;;;24.20;93.70;;;;;;5057939;28;20040;-82
2021/08/03 07:15:11;;;;;;;1.63;1.50;;;24.20;93.70;;;;;;5075755;28;20032;-83
2021/08/03 07:17:39;;;;;;;3.15;1.80;;;24.20;93.60;;;;;;5057468;28;20025;-83
2021/08/03 07:20:05;;;;;;;2.25;1.75;;;24.20;93.60;;;;;;5075470;28;20109;-83
2021/08/03 07:22:34;;;;;;;2.53;1.77;;;24.20;93.60;;;;;;5038593;28;20032;-83
2021/08/03 07:25:01;;;;;;;3.28;2.10;;;24.20;93.60;;;;;;5074966;28;20059;-83
2021/08/03 07:27:27;;;;;;;1.65;1.33;;;24.20;93.60;;;;;;5075051;28;20073;-83
2021/08/03 07:29:52;;;;;;;3.67;1.38;;;24.20;93.60;;;;;;5025326;28;20028;-83
2021/08/03 07:32:18;;;;;;;2.55;1.85;;;24.20;93.50;;;;;;5036954;28;20037;-83
2021/08/03 07:34:44;;;;;;;3.15;1.67;;;24.20;93.50;;;;;;5024148;28;20367;-83
2021/08/03 07:37:10;;;;;;;2.42;1.92;;;24.20;93.50;;;;;;5039819;28;20106;-83
2021/08/03 07:39:37;;;;;;;2.95;1.90;;;24.20;93.40;;;;;;5057220;28;20127;-82
2021/08/03 07:42:04;;;;;;;2.80;2.03;;;24.20;93.40;;;;;;5040549;28;20123;-82
2021/08/03 07:44:30;;;;;;;2.35;1.85;;;24.20;93.40;;;;;;5075141;28;20025;-82
2021/08/03 07:46:55;;;;;;;3.60;1.95;;;24.20;93.50;;;;;;5040646;28;20455;-82
2021/08/03 07:49:21;;;;;;;3.38;1.88;;;24.20;93.50;;;;;;5040520;28;20029;-83
2021/08/03 07:51:48;;;;;;;2.45;1.80;;;24.20;93.50;;;;;;5056565;28;20213;-82
2021/08/03 07:54:14;;;;;;;1.40;1.30;;;24.20;93.60;;;;;;5057009;28;20090;-82
2021/08/03 07:56:40;;;;;;;2.15;1.60;;;24.20;93.60;;;;;;5057666;28;20060;-82
2021/08/03 07:59:06;;;;;;;2.10;1.38;;;24.20;93.60;;;;;;5057118;28;20419;-82
2021/08/03 08:01:33;;;;;;;1.85;1.38;;;24.20;93.60;;;;;;5039563;28;20487;-82
2021/08/03 08:03:59;;;;;;;1.92;1.40;;;24.20;93.60;;;;;;5057917;28;20028;-82
2021/08/03 08:06:25;;;;;;;1.55;1.23;;;24.20;93.70;;;;;;5073340;28;20442;-80
2021/08/03 08:08:51;;;;;;;1.48;1.33;;;24.30;93.80;;;;;;5056002;28;20359;-82
2021/08/03 08:11:16;;;;;;;2.42;1.50;;;24.20;93.90;;;;;;5073243;28;20099;-82
2021/08/03 08:13:42;;;;;;;1.80;1.38;;;24.20;93.90;;;;;;5056027;28;20032;-82
2021/08/03 08:16:08;;;;;;;4.25;1.25;;;24.20;94.00;;;;;;5038963;28;20124;-82
2021/08/03 08:18:33;;;;;;;1.95;1.00;;;24.30;93.90;;;;;;5074440;28;20041;-83
2021/08/03 08:20:59;;;;;;;2.08;1.23;;;24.20;93.90;;;;;;5056492;28;20470;-83
2021/08/03 08:23:25;;;;;;;1.30;0.90;;;24.20;93.90;;;;;;5074196;28;20035;-83
2021/08/03 08:25:51;;;;;;;2.15;1.20;;;24.20;93.80;;;;;;5058085;28;20024;-83
2021/08/03 08:28:17;;;;;;;1.83;1.10;;;24.30;93.80;;;;;;5057718;28;20451;-83
2021/08/03 08:30:43;;;;;;;2.13;1.20;;;24.20;93.80;;;;;;5056259;28;20036;-83
2021/08/03 08:33:10;;;;;;;2.65;1.30;;;24.20;93.80;;;;;;5073460;28;20040;-83
2021/08/03 08:35:36;;;;;;;1.70;1.35;;;24.20;93.60;;;;;;5055191;28;20044;-83
2021/08/03 08:38:03;;;;;;;2.30;1.35;;;24.30;93.60;;;;;;5055898;28;20125;-83
2021/08/03 08:40:29;;;;;;;1.67;1.30;;;24.30;93.60;;;;;;5039759;28;20462;-83
2021/08/03 08:42:54;;;;;;;2.15;1.30;;;24.20;93.40;;;;;;5038627;28;20025;-83
2021/08/03 08:45:20;;;;;;;2.13;1.60;;;24.30;93.50;;;;;;5058326;28;20040;-84
2021/08/03 08:47:47;;;;;;;2.22;1.50;;;24.30;93.50;;;;;;5073124;28;20071;-84
2021/08/03 08:50:15;;;;;;;1.88;1.30;;;24.20;93.30;;;;;;5072471;28;20029;-81
2021/08/03 08:52:42;;;;;;;2.05;1.35;;;24.30;93.40;;;;;;5039926;28;20037;-82
2021/08/03 08:55:10;;;;;;;2.88;1.45;;;24.30;93.30;;;;;;5072910;28;20090;-82
2021/08/03 08:57:41;;;;;;;2.08;1.38;;;24.30;93.20;;;;;;5055416;28;20436;-82
2021/08/03 09:00:08;;;;;;;2.45;1.40;;;24.40;93.10;;;;;;5039553;28;20116;-82
2021/08/03 09:02:42;;;;;;;4.13;1.60;;;24.40;92.90;;;;;;5053145;28;20029;-82
2021/08/03 09:05:08;;;;;;;;;;;24.40;92.90;;;;;;5057839;28;20040;-83
2021/08/03 09:07:55;;;;;;;1.92;1.50;;;24.40;92.80;;;;;;5073466;28;19995;-82
2021/08/03 09:10:27;;;;;;;2.08;1.63;;;24.40;92.70;;;;;;5056029;28;20032;-82
2021/08/03 09:13:03;;;;;;;1.90;1.50;;;24.40;92.60;;;;;;5056802;28;20088;-82
2021/08/03 09:15:29;;;;;;;1.58;1.35;;;24.40;92.60;;;;;;5061749;28;20056;-84
2021/08/03 09:18:23;;;;;;;3.80;1.80;;;24.40;92.50;;;;;;5056646;28;20037;-82
2021/08/03 09:20:49;;;;;;;1.88;1.40;;;24.40;92.50;;;;;;5055624;28;20028;-82
2021/08/03 09:23:15;;;;;;;2.60;1.58;;;24.40;92.50;;;;;;5059027;28;20093;-82
2021/08/03 09:25:56;;;;;;;1.70;1.20;;;24.40;92.50;;;;;;5072970;28;20510;-82
2021/08/03 09:28:21;;;;;;;2.22;1.63;;;24.40;92.50;;;;;;5057292;28;20024;-82
2021/08/03 09:30:47;;;;;;;3.60;1.65;;;24.40;92.50;;;;;;5038825;28;20043;-82
2021/08/03 09:33:21;;;;;;;1.55;1.30;;;24.40;92.40;;;;;;5025692;28;20024;-81
2021/08/03 09:35:48;;;;;;;2.30;1.40;;;24.40;92.50;;;;;;5055409;28;20426;-82
2021/08/03 09:38:16;;;;;;;1.80;1.20;;;24.40;92.40;;;;;;5079879;28;20051;-82
2021/08/03 09:40:42;;;;;;;1.73;1.33;;;24.40;92.40;;;;;;5072426;28;20083;-82
2021/08/03 09:43:15;;;;;;;2.15;1.35;;;24.30;92.40;;;;;;5072809;28;20478;-81
2021/08/03 09:45:44;;;;;;;2.92;1.50;;;24.30;92.50;;;;;;5054721;28;20028;-82
2021/08/03 09:48:18;;;;;;;1.80;1.40;;;24.30;92.50;;;;;;5056129;28;20036;-82
2021/08/03 09:51:12;;;;;;;2.38;1.83;;;24.30;92.40;;;;;;5073579;28;20024;-81
2021/08/03 09:53:52;;;;;;;2.63;1.70;;;24.20;92.40;;;;;;5069567;28;20463;-82
2021/08/03 09:56:26;;;;;;;1.50;1.27;;;24.20;92.50;;;;;;5072784;28;20033;-82
2021/08/03 09:58:59;;;;;;;2.13;1.40;;;24.20;92.40;;;;;;5054519;28;20094;-82
2021/08/03 10:01:27;;;;;;;2.08;1.30;;;24.20;92.50;;;;;;5054679;28;20119;-81
2021/08/03 10:03:54;;;;;;;2.10;1.58;;;24.20;92.40;;;;;;5072034;28;20419;-82
2021/08/03 10:06:21;;;;;;;2.83;1.55;;;24.20;92.50;;;;;;5054179;28;20035;-82
2021/08/03 10:08:51;;;;;;;1.33;1.10;;;24.20;92.50;;;;;;5054319;28;20170;-82
2021/08/03 10:11:18;;;;;;;1.77;1.20;;;24.20;92.60;;;;;;5054981;28;20093;-82
2021/08/03 10:13:45;;;;;;;2.15;1.08;;;24.20;92.60;;;;;;5072082;28;20051;-82
2021/08/03 10:16:12;;;;;;;1.60;1.20;;;24.20;92.60;;;;;;5072234;28;20052;-83
2021/08/03 10:18:39;;;;;;;1.75;1.23;;;24.20;92.50;;;;;;5038195;28;20040;-84
2021/08/03 10:21:07;;;;;;;1.80;1.50;;;24.20;92.60;;;;;;5054518;28;20025;-81
2021/08/03 10:23:35;;;;;;;2.95;1.80;;;24.20;92.70;;;;;;5072239;28;20064;-81
2021/08/03 10:26:03;;;;;;;2.47;1.85;;;24.20;92.70;;;;;;5053772;28;20461;-81
2021/08/03 10:28:30;;;;;;;3.75;2.08;;;24.20;92.70;;;;;;5054186;28;20170;-82
2021/08/03 10:30:56;;;;;;;3.25;2.30;;;24.20;92.80;;;;;;5037754;28;20024;-82
2021/08/03 10:33:46;;;;;;;2.75;2.15;;;24.20;92.80;;;;;;5055221;28;20032;-82
2021/08/03 10:36:37;;;;;;;4.30;2.13;;;24.20;92.90;;;;;;5052805;28;20025;-82
2021/08/03 10:39:16;;;;;;;2.50;2.30;;;24.20;92.90;;;;;;5074573;28;20111;-82
2021/08/03 10:42:03;;;;;;;3.47;2.80;;;24.20;92.90;;;;;;5056819;28;20025;-81
2021/08/03 10:44:41;;;;;;;4.80;2.75;;;24.20;92.90;;;;;;5072470;28;20055;-81
2021/08/03 10:47:34;;;;;;;4.80;2.95;;;24.20;92.90;;;;;;5054264;28;20020;-80
2021/08/03 10:50:03;;;;;;;3.42;2.75;;;24.20;92.90;;;;;;5053803;28;20416;-82
2021/08/03 10:52:44;;;;;;;4.65;3.65;;;24.10;92.90;;;;;;5074598;28;20051;-81
2021/08/03 10:55:29;;;;;;;4.65;3.90;;;24.20;93.00;;;;;;5072012;28;20028;-81
2021/08/03 10:58:09;;;;;;;5.57;4.25;;;24.20;92.90;;;;;;5054189;28;20029;-83
2021/08/03 11:00:52;;;;;;;5.03;4.07;;;24.10;93.00;;;;;;5054246;28;20037;-81
2021/08/03 11:03:35;;;;;;;6.03;4.20;;;24.20;93.00;;;;;;5072027;28;20024;-81
2021/08/03 11:06:06;;;;;;;4.38;3.40;;;24.20;93.10;;;;;;5069862;28;20049;-82
2021/08/03 11:08:43;;;;;;;5.00;3.55;;;24.10;93.20;;;;;;5053755;28;20028;-81
2021/08/03 11:11:18;;;;;;;3.83;3.03;;;24.10;93.20;;;;;;5054074;28;20039;-82
2021/08/03 11:13:45;;;;;;;4.32;2.95;;;24.20;93.40;;;;;;5056706;28;20032;-84
2021/08/03 11:16:31;;;;;;;4.45;2.75;;;24.10;93.40;;;;;;5057484;28;20053;-82
2021/08/03 11:19:06;;;;;;;4.80;2.45;;;24.20;93.50;;;;;;5040324;28;20032;-82
2021/08/03 11:21:38;;;;;;;4.55;2.53;;;24.10;93.50;;;;;;5072405;28;20029;-81
2021/08/03 11:24:31;;;;;;;2.95;2.10;;;24.20;93.60;;;;;;5057331;28;20119;-84
2021/08/03 11:26:58;;;;;;;2.58;1.88;;;24.20;93.70;;;;;;5057496;28;20082;-85
2021/08/03 11:29:38;;;;;;;3.08;1.80;;;24.10;93.70;;;;;;5075475;28;20025;-85
2021/08/03 11:32:09;;;;;;;3.67;1.80;;;24.20;93.80;;;;;;5075191;28;20044;-85
2021/08/03 11:34:40;;;;;;;2.63;1.77;;;24.10;93.80;;;;;;5057775;28;20029;-84
2021/08/03 11:37:18;;;;;;;2.17;1.65;;;24.10;93.80;;;;;;5075026;28;20024;-85
2021/08/03 11:39:52;;;;;;;2.83;1.77;;;24.20;93.90;;;;;;5075077;28;20028;-84
2021/08/03 11:42:36;;;;;;;3.65;1.75;;;24.20;93.90;;;;;;5057207;28;20028;-85
2021/08/03 11:45:11;;;;;;;2.72;2.00;;;24.20;93.90;;;;;;5057128;28;20089;-84
2021/08/03 11:47:43;;;;;;;3.15;1.60;;;24.10;93.90;;;;;;5057121;28;20052;-84
2021/08/03 11:50:09;;;;;;;2.30;1.38;;;24.20;93.90;;;;;;5056624;28;20035;-84
2021/08/03 11:52:35;;;;;;;4.10;1.65;;;24.10;93.90;;;;;;5057023;28;20078;-84
2021/08/03 11:55:01;;;;;;;2.63;1.45;;;24.20;93.90;;;;;;5056398;28;20040;-84
2021/08/03 11:57:41;;;;;;;1.90;1.30;;;24.10;93.90;;;;;;5058758;28;20169;-84
2021/08/03 12:00:21;;;;;;;1.85;1.50;;;24.20;93.90;;;;;;5065622;28;20028;-84
2021/08/03 12:02:50;;;;;;;1.75;1.50;;;24.20;93.90;;;;;;5074621;28;20327;-84
2021/08/03 12:05:24;;;;;;;1.83;1.30;;;24.10;93.80;;;;;;5075011;28;20474;-84
2021/08/03 12:07:57;;;;;;;1.92;1.60;;;24.20;93.80;;;;;;5075145;28;20051;-84
2021/08/03 12:10:25;;;;;;;3.40;1.40;;;24.10;93.80;;;;;;5077526;28;20082;-84
2021/08/03 12:12:51;;;;;;;2.42;1.45;;;24.10;94.00;;;;;;5057790;28;20032;-84
2021/08/03 12:15:19;;;;;;;1.88;1.20;;;24.10;93.80;;;;;;5074592;28;20050;-84
2021/08/03 12:17:46;;;;;;;1.95;1.60;;;24.20;93.70;;;;;;5075008;28;20049;-84
2021/08/03 12:20:26;;;;;;;2.45;1.88;;;24.20;93.60;;;;;;5057027;28;20494;-84
2021/08/03 12:22:52;;;;;;;1.45;1.13;;;24.20;93.60;;;;;;5056429;28;20036;-83
2021/08/03 12:25:19;;;;;;;2.17;1.40;;;24.20;93.50;;;;;;5057383;28;20393;-84
2021/08/03 12:27:46;;;;;;;1.60;1.08;;;24.20;93.40;;;;;;5077068;28;20056;-84
2021/08/03 12:30:35;;;;;;;2.28;1.25;;;24.20;93.40;;;;;;5060159;28;20028;-84
2021/08/03 12:33:01;;;;;;;1.65;1.25;;;24.20;93.40;;;;;;5058244;28;20021;-84
2021/08/03 12:35:26;;;;;;;2.35;1.30;;;24.20;93.40;;;;;;5058562;28;20044;-84
2021/08/03 12:37:52;;;;;;;2.05;1.10;;;24.20;93.20;;;;;;5040320;28;20378;-84
2021/08/03 12:40:32;;;;;;;1.55;1.15;;;24.20;93.20;;;;;;5057208;28;20501;-84
2021/08/03 12:42:59;;;;;;;2.15;1.02;;;24.20;93.10;;;;;;5070568;28;20038;-84
2021/08/03 12:45:25;;;;;;;2.33;1.27;;;24.20;93.10;;;;;;5074085;28;20052;-84
2021/08/03 12:47:57;;;;;;;1.95;1.20;;;24.20;93.10;;;;;;5074243;28;20025;-84
2021/08/03 12:50:25;;;;;;;2.67;1.35;;;24.20;93.10;;;;;;5074179;28;20031;-84
2021/08/03 12:53:02;;;;;;;2.58;1.38;;;24.20;93.10;;;;;;5073929;28;20028;-84